sensor_id;sensor_type;location;lat;lon;timestamp;temperature;humidity
59075;DHT22;44860;53.020;6.738;2023-12-04T00:00:46;0.70;99.90
59075;DHT22;44860;53.020;6.738;2023-12-04T00:03:12;0.70;99.90
59075;DHT22;44860;53.020;6.738;2023-12-04T00:05:38;0.70;99.90
59075;DHT22;44860;53.020;6.738;2023-12-04T00:08:03;0.70;99.90
59075;DHT22;44860;53.020;6.738;2023-12-04T00:10:29;0.60;99.90
59075;DHT22;44860;53.020;6.738;2023-12-04T00:12:55;0.60;99.90
59075;DHT22;44860;53.020;6.738;2023-12-04T00:15:20;0.60;99.90
59075;DHT22;44860;53.020;6.738;2023-12-04T00:17:47;0.60;99.90
59075;DHT22;44860;53.020;6.738;2023-12-04T00:20:12;0.60;99.90
59075;DHT22;44860;53.020;6.738;2023-12-04T00:22:38;0.60;99.90
59075;DHT22;44860;53.020;6.738;2023-12-04T00:25:05;0.60;99.90
59075;DHT22;44860;53.020;6.738;2023-12-04T00:27:32;0.60;99.90
59075;DHT22;44860;53.020;6.738;2023-12-04T00:29:57;0.60;99.90
59075;DHT22;44860;53.020;6.738;2023-12-04T00:32:23;0.60;99.90
59075;DHT22;44860;53.020;6.738;2023-12-04T00:34:49;0.60;99.90
59075;DHT22;44860;53.020;6.738;2023-12-04T00:37:15;0.60;99.90
59075;DHT22;44860;53.020;6.738;2023-12-04T00:39:41;0.60;99.90
59075;DHT22;44860;53.020;6.738;2023-12-04T00:42:06;0.60;99.90
59075;DHT22;44860;53.020;6.738;2023-12-04T00:44:32;0.60;99.90
59075;DHT22;44860;53.020;6.738;2023-12-04T00:46:57;0.60;99.90
59075;DHT22;44860;53.020;6.738;2023-12-04T00:49:23;0.60;99.90
59075;DHT22;44860;53.020;6.738;2023-12-04T00:51:49;0.60;99.90
59075;DHT22;44860;53.020;6.738;2023-12-04T00:54:15;0.60;99.90
59075;DHT22;44860;53.020;6.738;2023-12-04T00:56:41;0.60;99.90
59075;DHT22;44860;53.020;6.738;2023-12-04T00:59:10;0.60;99.90
59075;DHT22;44860;53.020;6.738;2023-12-04T01:01:37;0.60;99.90
59075;DHT22;44860;53.020;6.738;2023-12-04T01:04:03;0.60;99.90
59075;DHT22;44860;53.020;6.738;2023-12-04T01:06:29;0.60;99.90
59075;DHT22;44860;53.020;6.738;2023-12-04T01:08:55;0.60;99.90
59075;DHT22;44860;53.020;6.738;2023-12-04T01:11:21;0.60;99.90
59075;DHT22;44860;53.020;6.738;2023-12-04T01:13:47;0.60;99.90
59075;DHT22;44860;53.020;6.738;2023-12-04T01:16:13;0.60;99.90
59075;DHT22;44860;53.020;6.738;2023-12-04T01:18:39;0.60;99.90
59075;DHT22;44860;53.020;6.738;2023-12-04T01:21:04;0.60;99.90
59075;DHT22;44860;53.020;6.738;2023-12-04T01:23:30;0.60;99.90
59075;DHT22;44860;53.020;6.738;2023-12-04T01:25:56;0.60;99.90
59075;DHT22;44860;53.020;6.738;2023-12-04T01:28:21;0.60;99.90
59075;DHT22;44860;53.020;6.738;2023-12-04T01:30:47;0.60;99.90
59075;DHT22;44860;53.020;6.738;2023-12-04T01:33:13;0.60;99.90
59075;DHT22;44860;53.020;6.738;2023-12-04T01:35:38;0.60;99.90
59075;DHT22;44860;53.020;6.738;2023-12-04T01:38:04;0.60;99.90
59075;DHT22;44860;53.020;6.738;2023-12-04T01:40:30;0.60;99.90
59075;DHT22;44860;53.020;6.738;2023-12-04T01:42:55;0.60;99.90
59075;DHT22;44860;53.020;6.738;2023-12-04T01:45:21;0.60;99.90
59075;DHT22;44860;53.020;6.738;2023-12-04T01:47:47;0.60;99.90
59075;DHT22;44860;53.020;6.738;2023-12-04T01:50:14;0.60;99.90
59075;DHT22;44860;53.020;6.738;2023-12-04T01:52:40;0.70;99.90
59075;DHT22;44860;53.020;6.738;2023-12-04T01:55:08;0.70;99.90
59075;DHT22;44860;53.020;6.738;2023-12-04T01:57:35;0.70;99.90
59075;DHT22;44860;53.020;6.738;2023-12-04T02:00:01;0.70;99.90
59075;DHT22;44860;53.020;6.738;2023-12-04T02:02:30;0.60;99.90
59075;DHT22;44860;53.020;6.738;2023-12-04T02:04:56;0.70;99.90
59075;DHT22;44860;53.020;6.738;2023-12-04T02:07:23;0.60;99.90
59075;DHT22;44860;53.020;6.738;2023-12-04T02:09:49;0.60;99.90
59075;DHT22;44860;53.020;6.738;2023-12-04T02:12:16;0.60;99.90
59075;DHT22;44860;53.020;6.738;2023-12-04T02:14:42;0.60;99.90
59075;DHT22;44860;53.020;6.738;2023-12-04T02:17:09;0.60;99.90
59075;DHT22;44860;53.020;6.738;2023-12-04T02:19:36;0.70;99.90
59075;DHT22;44860;53.020;6.738;2023-12-04T02:22:02;0.70;99.90
59075;DHT22;44860;53.020;6.738;2023-12-04T02:24:28;0.60;99.90
59075;DHT22;44860;53.020;6.738;2023-12-04T02:27:00;0.60;99.90
59075;DHT22;44860;53.020;6.738;2023-12-04T02:29:39;0.70;99.90
59075;DHT22;44860;53.020;6.738;2023-12-04T02:32:06;0.70;99.90
59075;DHT22;44860;53.020;6.738;2023-12-04T02:34:33;0.70;99.90
59075;DHT22;44860;53.020;6.738;2023-12-04T02:36:59;0.70;99.90
59075;DHT22;44860;53.020;6.738;2023-12-04T02:39:27;0.70;99.90
59075;DHT22;44860;53.020;6.738;2023-12-04T02:41:52;0.70;99.90
59075;DHT22;44860;53.020;6.738;2023-12-04T02:44:18;0.70;99.90
59075;DHT22;44860;53.020;6.738;2023-12-04T02:46:44;0.60;99.90
59075;DHT22;44860;53.020;6.738;2023-12-04T02:49:09;0.70;99.90
59075;DHT22;44860;53.020;6.738;2023-12-04T02:51:35;0.70;99.90
59075;DHT22;44860;53.020;6.738;2023-12-04T02:54:00;0.70;99.90
59075;DHT22;44860;53.020;6.738;2023-12-04T02:56:26;0.70;99.90
59075;DHT22;44860;53.020;6.738;2023-12-04T02:58:52;0.70;99.90
59075;DHT22;44860;53.020;6.738;2023-12-04T03:01:17;0.70;99.90
59075;DHT22;44860;53.020;6.738;2023-12-04T03:03:43;0.70;99.90
59075;DHT22;44860;53.020;6.738;2023-12-04T03:06:09;0.70;99.90
59075;DHT22;44860;53.020;6.738;2023-12-04T03:08:34;0.70;99.90
59075;DHT22;44860;53.020;6.738;2023-12-04T03:11:01;0.70;99.90
59075;DHT22;44860;53.020;6.738;2023-12-04T03:13:28;0.70;99.90
59075;DHT22;44860;53.020;6.738;2023-12-04T03:15:54;0.80;99.90
59075;DHT22;44860;53.020;6.738;2023-12-04T03:18:20;0.80;99.90
59075;DHT22;44860;53.020;6.738;2023-12-04T03:20:45;0.80;99.90
59075;DHT22;44860;53.020;6.738;2023-12-04T03:23:11;0.80;99.90
59075;DHT22;44860;53.020;6.738;2023-12-04T03:25:37;0.80;99.90
59075;DHT22;44860;53.020;6.738;2023-12-04T03:28:02;0.70;99.90
59075;DHT22;44860;53.020;6.738;2023-12-04T03:30:28;0.80;99.90
59075;DHT22;44860;53.020;6.738;2023-12-04T03:32:54;0.80;99.90
59075;DHT22;44860;53.020;6.738;2023-12-04T03:35:19;0.80;99.90
59075;DHT22;44860;53.020;6.738;2023-12-04T03:37:45;0.80;99.90
59075;DHT22;44860;53.020;6.738;2023-12-04T03:40:11;0.80;99.90
59075;DHT22;44860;53.020;6.738;2023-12-04T03:42:37;0.80;99.90
59075;DHT22;44860;53.020;6.738;2023-12-04T03:45:03;0.80;99.90
59075;DHT22;44860;53.020;6.738;2023-12-04T03:47:29;0.80;99.90
59075;DHT22;44860;53.020;6.738;2023-12-04T03:49:54;0.80;99.90
59075;DHT22;44860;53.020;6.738;2023-12-04T03:52:20;0.80;99.90
59075;DHT22;44860;53.020;6.738;2023-12-04T03:54:46;0.80;99.90
59075;DHT22;44860;53.020;6.738;2023-12-04T03:57:11;0.80;99.90
59075;DHT22;44860;53.020;6.738;2023-12-04T03:59:37;0.80;99.90
59075;DHT22;44860;53.020;6.738;2023-12-04T04:02:03;0.80;99.90
59075;DHT22;44860;53.020;6.738;2023-12-04T04:04:28;0.80;99.90
59075;DHT22;44860;53.020;6.738;2023-12-04T04:06:54;0.80;99.90
59075;DHT22;44860;53.020;6.738;2023-12-04T04:09:19;0.80;99.90
59075;DHT22;44860;53.020;6.738;2023-12-04T04:11:46;0.80;99.90
59075;DHT22;44860;53.020;6.738;2023-12-04T04:14:11;0.80;99.90
59075;DHT22;44860;53.020;6.738;2023-12-04T04:16:37;0.90;99.90
59075;DHT22;44860;53.020;6.738;2023-12-04T04:19:02;0.80;99.90
59075;DHT22;44860;53.020;6.738;2023-12-04T04:21:28;0.80;99.90
59075;DHT22;44860;53.020;6.738;2023-12-04T04:23:54;0.90;99.90
59075;DHT22;44860;53.020;6.738;2023-12-04T04:26:20;0.80;99.90
59075;DHT22;44860;53.020;6.738;2023-12-04T04:28:45;0.80;99.90
59075;DHT22;44860;53.020;6.738;2023-12-04T04:31:11;0.90;99.90
59075;DHT22;44860;53.020;6.738;2023-12-04T04:33:37;0.90;99.90
59075;DHT22;44860;53.020;6.738;2023-12-04T04:36:03;0.90;99.90
59075;DHT22;44860;53.020;6.738;2023-12-04T04:38:28;0.80;99.90
59075;DHT22;44860;53.020;6.738;2023-12-04T04:40:54;0.90;99.90
59075;DHT22;44860;53.020;6.738;2023-12-04T04:43:20;0.90;99.90
59075;DHT22;44860;53.020;6.738;2023-12-04T04:45:46;0.90;99.90
59075;DHT22;44860;53.020;6.738;2023-12-04T04:48:12;0.90;99.90
59075;DHT22;44860;53.020;6.738;2023-12-04T04:50:37;0.90;99.90
59075;DHT22;44860;53.020;6.738;2023-12-04T04:53:03;0.90;99.90
59075;DHT22;44860;53.020;6.738;2023-12-04T04:55:29;0.90;99.90
59075;DHT22;44860;53.020;6.738;2023-12-04T04:57:55;0.90;99.90
59075;DHT22;44860;53.020;6.738;2023-12-04T05:00:21;0.90;99.90
59075;DHT22;44860;53.020;6.738;2023-12-04T05:02:47;0.90;99.90
59075;DHT22;44860;53.020;6.738;2023-12-04T05:05:12;0.80;99.90
59075;DHT22;44860;53.020;6.738;2023-12-04T05:07:38;0.90;99.90
59075;DHT22;44860;53.020;6.738;2023-12-04T05:10:04;0.80;99.90
59075;DHT22;44860;53.020;6.738;2023-12-04T05:12:30;0.90;99.90
59075;DHT22;44860;53.020;6.738;2023-12-04T05:14:55;0.90;99.90
59075;DHT22;44860;53.020;6.738;2023-12-04T05:17:21;0.90;99.90
59075;DHT22;44860;53.020;6.738;2023-12-04T05:19:47;0.90;99.90
59075;DHT22;44860;53.020;6.738;2023-12-04T05:22:12;0.90;99.90
59075;DHT22;44860;53.020;6.738;2023-12-04T05:24:38;0.80;99.90
59075;DHT22;44860;53.020;6.738;2023-12-04T05:27:04;0.90;99.90
59075;DHT22;44860;53.020;6.738;2023-12-04T05:29:30;0.80;99.90
59075;DHT22;44860;53.020;6.738;2023-12-04T05:31:55;0.80;99.90
59075;DHT22;44860;53.020;6.738;2023-12-04T05:34:23;0.80;99.90
59075;DHT22;44860;53.020;6.738;2023-12-04T05:36:48;0.90;99.90
59075;DHT22;44860;53.020;6.738;2023-12-04T05:39:14;0.80;99.90
59075;DHT22;44860;53.020;6.738;2023-12-04T05:41:40;0.80;99.90
59075;DHT22;44860;53.020;6.738;2023-12-04T05:44:05;0.80;99.90
59075;DHT22;44860;53.020;6.738;2023-12-04T05:46:31;0.80;99.90
59075;DHT22;44860;53.020;6.738;2023-12-04T05:48:57;0.80;99.90
59075;DHT22;44860;53.020;6.738;2023-12-04T05:51:23;0.80;99.90
59075;DHT22;44860;53.020;6.738;2023-12-04T05:53:49;0.80;99.90
59075;DHT22;44860;53.020;6.738;2023-12-04T05:56:15;0.80;99.90
59075;DHT22;44860;53.020;6.738;2023-12-04T05:58:40;0.80;99.90
59075;DHT22;44860;53.020;6.738;2023-12-04T06:01:06;0.80;99.90
59075;DHT22;44860;53.020;6.738;2023-12-04T06:03:32;0.90;99.90
59075;DHT22;44860;53.020;6.738;2023-12-04T06:05:58;0.90;99.90
59075;DHT22;44860;53.020;6.738;2023-12-04T06:08:24;0.80;99.90
59075;DHT22;44860;53.020;6.738;2023-12-04T06:10:50;0.90;99.90
59075;DHT22;44860;53.020;6.738;2023-12-04T06:13:15;0.90;99.90
59075;DHT22;44860;53.020;6.738;2023-12-04T06:15:41;0.90;99.90
59075;DHT22;44860;53.020;6.738;2023-12-04T06:18:07;0.90;99.90
59075;DHT22;44860;53.020;6.738;2023-12-04T06:20:33;0.80;99.90
59075;DHT22;44860;53.020;6.738;2023-12-04T06:22:58;0.90;99.90
59075;DHT22;44860;53.020;6.738;2023-12-04T06:25:25;0.90;99.90
59075;DHT22;44860;53.020;6.738;2023-12-04T06:27:51;0.90;99.90
59075;DHT22;44860;53.020;6.738;2023-12-04T06:30:17;0.90;99.90
59075;DHT22;44860;53.020;6.738;2023-12-04T06:32:43;0.90;99.90
59075;DHT22;44860;53.020;6.738;2023-12-04T06:35:09;0.90;99.90
59075;DHT22;44860;53.020;6.738;2023-12-04T06:37:38;1.00;99.90
59075;DHT22;44860;53.020;6.738;2023-12-04T06:40:04;0.90;99.90
59075;DHT22;44860;53.020;6.738;2023-12-04T06:42:31;1.00;99.90
59075;DHT22;44860;53.020;6.738;2023-12-04T06:44:57;1.00;99.90
59075;DHT22;44860;53.020;6.738;2023-12-04T06:47:23;0.90;99.90
59075;DHT22;44860;53.020;6.738;2023-12-04T06:49:49;1.00;99.90
59075;DHT22;44860;53.020;6.738;2023-12-04T06:52:14;1.00;99.90
59075;DHT22;44860;53.020;6.738;2023-12-04T06:54:40;0.90;99.90
59075;DHT22;44860;53.020;6.738;2023-12-04T06:57:06;0.90;99.90
59075;DHT22;44860;53.020;6.738;2023-12-04T06:59:32;0.90;99.90
59075;DHT22;44860;53.020;6.738;2023-12-04T07:01:57;0.90;99.90
59075;DHT22;44860;53.020;6.738;2023-12-04T07:04:23;0.90;99.90
59075;DHT22;44860;53.020;6.738;2023-12-04T07:06:49;0.90;99.90
59075;DHT22;44860;53.020;6.738;2023-12-04T07:09:15;0.90;99.90
59075;DHT22;44860;53.020;6.738;2023-12-04T07:11:42;0.90;99.90
59075;DHT22;44860;53.020;6.738;2023-12-04T07:14:09;0.90;99.90
59075;DHT22;44860;53.020;6.738;2023-12-04T07:16:43;0.90;99.90
59075;DHT22;44860;53.020;6.738;2023-12-04T07:19:10;0.90;99.90
59075;DHT22;44860;53.020;6.738;2023-12-04T07:21:36;0.90;99.90
59075;DHT22;44860;53.020;6.738;2023-12-04T07:24:03;0.90;99.90
59075;DHT22;44860;53.020;6.738;2023-12-04T07:26:28;0.90;99.90
59075;DHT22;44860;53.020;6.738;2023-12-04T07:28:54;0.90;99.90
59075;DHT22;44860;53.020;6.738;2023-12-04T07:31:20;0.90;99.90
59075;DHT22;44860;53.020;6.738;2023-12-04T07:33:45;0.90;99.90
59075;DHT22;44860;53.020;6.738;2023-12-04T07:36:11;0.90;99.90
59075;DHT22;44860;53.020;6.738;2023-12-04T07:38:37;0.90;99.90
59075;DHT22;44860;53.020;6.738;2023-12-04T07:41:02;0.90;99.90
59075;DHT22;44860;53.020;6.738;2023-12-04T07:43:28;0.90;99.90
59075;DHT22;44860;53.020;6.738;2023-12-04T07:45:55;0.90;99.90
59075;DHT22;44860;53.020;6.738;2023-12-04T07:48:21;0.90;99.90
59075;DHT22;44860;53.020;6.738;2023-12-04T07:50:47;0.90;99.90
59075;DHT22;44860;53.020;6.738;2023-12-04T07:53:13;0.90;99.90
59075;DHT22;44860;53.020;6.738;2023-12-04T07:55:40;1.00;99.90
59075;DHT22;44860;53.020;6.738;2023-12-04T07:58:06;0.90;99.90
59075;DHT22;44860;53.020;6.738;2023-12-04T08:00:31;1.00;99.90
59075;DHT22;44860;53.020;6.738;2023-12-04T08:02:59;1.00;99.90
59075;DHT22;44860;53.020;6.738;2023-12-04T08:05:25;1.00;99.90
59075;DHT22;44860;53.020;6.738;2023-12-04T08:07:52;1.00;99.90
59075;DHT22;44860;53.020;6.738;2023-12-04T08:10:18;1.00;99.90
59075;DHT22;44860;53.020;6.738;2023-12-04T08:12:45;1.00;99.90
59075;DHT22;44860;53.020;6.738;2023-12-04T08:15:11;1.00;99.90
59075;DHT22;44860;53.020;6.738;2023-12-04T08:17:37;1.00;99.90
59075;DHT22;44860;53.020;6.738;2023-12-04T08:20:03;1.00;99.90
59075;DHT22;44860;53.020;6.738;2023-12-04T08:22:29;1.00;99.90
59075;DHT22;44860;53.020;6.738;2023-12-04T08:24:55;1.00;99.90
59075;DHT22;44860;53.020;6.738;2023-12-04T08:27:21;1.00;99.90
59075;DHT22;44860;53.020;6.738;2023-12-04T08:29:46;1.00;99.90
59075;DHT22;44860;53.020;6.738;2023-12-04T08:32:12;1.00;99.90
59075;DHT22;44860;53.020;6.738;2023-12-04T08:34:38;1.00;99.90
59075;DHT22;44860;53.020;6.738;2023-12-04T08:37:03;1.00;99.90
59075;DHT22;44860;53.020;6.738;2023-12-04T08:39:29;1.10;99.90
59075;DHT22;44860;53.020;6.738;2023-12-04T08:41:54;1.10;99.90
59075;DHT22;44860;53.020;6.738;2023-12-04T08:44:20;1.10;99.90
59075;DHT22;44860;53.020;6.738;2023-12-04T08:46:46;1.10;99.90
59075;DHT22;44860;53.020;6.738;2023-12-04T08:49:11;1.10;99.90
59075;DHT22;44860;53.020;6.738;2023-12-04T08:51:37;1.10;99.90
59075;DHT22;44860;53.020;6.738;2023-12-04T08:54:03;1.00;99.90
59075;DHT22;44860;53.020;6.738;2023-12-04T08:56:29;1.10;99.90
59075;DHT22;44860;53.020;6.738;2023-12-04T08:58:55;1.10;99.90
59075;DHT22;44860;53.020;6.738;2023-12-04T09:01:20;1.10;99.90
59075;DHT22;44860;53.020;6.738;2023-12-04T09:03:46;1.10;99.90
59075;DHT22;44860;53.020;6.738;2023-12-04T09:06:12;1.10;99.90
59075;DHT22;44860;53.020;6.738;2023-12-04T09:08:37;1.10;99.90
59075;DHT22;44860;53.020;6.738;2023-12-04T09:11:03;1.10;99.90
59075;DHT22;44860;53.020;6.738;2023-12-04T09:13:29;1.10;99.90
59075;DHT22;44860;53.020;6.738;2023-12-04T09:15:56;1.10;99.90
59075;DHT22;44860;53.020;6.738;2023-12-04T09:18:21;1.20;99.90
59075;DHT22;44860;53.020;6.738;2023-12-04T09:20:47;1.20;99.90
59075;DHT22;44860;53.020;6.738;2023-12-04T09:23:13;1.20;99.90
59075;DHT22;44860;53.020;6.738;2023-12-04T09:25:38;1.20;99.90
59075;DHT22;44860;53.020;6.738;2023-12-04T09:28:04;1.20;99.90
59075;DHT22;44860;53.020;6.738;2023-12-04T09:30:30;1.20;99.90
59075;DHT22;44860;53.020;6.738;2023-12-04T09:32:55;1.20;99.90
59075;DHT22;44860;53.020;6.738;2023-12-04T09:35:21;1.30;99.90
59075;DHT22;44860;53.020;6.738;2023-12-04T09:37:47;1.30;99.90
59075;DHT22;44860;53.020;6.738;2023-12-04T09:40:16;1.30;99.90
59075;DHT22;44860;53.020;6.738;2023-12-04T09:42:42;1.30;99.90
59075;DHT22;44860;53.020;6.738;2023-12-04T09:45:09;1.30;99.90
59075;DHT22;44860;53.020;6.738;2023-12-04T09:47:35;1.30;99.90
59075;DHT22;44860;53.020;6.738;2023-12-04T09:50:02;1.40;99.90
59075;DHT22;44860;53.020;6.738;2023-12-04T09:52:28;1.40;99.90
59075;DHT22;44860;53.020;6.738;2023-12-04T09:54:53;1.40;99.90
59075;DHT22;44860;53.020;6.738;2023-12-04T09:57:19;1.40;99.90
59075;DHT22;44860;53.020;6.738;2023-12-04T09:59:47;1.40;99.90
59075;DHT22;44860;53.020;6.738;2023-12-04T10:02:14;1.40;99.90
59075;DHT22;44860;53.020;6.738;2023-12-04T10:04:40;1.50;99.90
59075;DHT22;44860;53.020;6.738;2023-12-04T10:07:06;1.50;99.90
59075;DHT22;44860;53.020;6.738;2023-12-04T10:09:32;1.50;99.90
59075;DHT22;44860;53.020;6.738;2023-12-04T10:11:58;1.50;99.90
59075;DHT22;44860;53.020;6.738;2023-12-04T10:14:23;1.60;99.90
59075;DHT22;44860;53.020;6.738;2023-12-04T10:16:51;1.60;99.90
59075;DHT22;44860;53.020;6.738;2023-12-04T10:19:22;1.60;99.90
59075;DHT22;44860;53.020;6.738;2023-12-04T10:21:49;1.60;99.90
59075;DHT22;44860;53.020;6.738;2023-12-04T10:24:36;1.60;99.90
59075;DHT22;44860;53.020;6.738;2023-12-04T10:27:03;1.60;99.90
59075;DHT22;44860;53.020;6.738;2023-12-04T10:29:43;1.60;99.90
59075;DHT22;44860;53.020;6.738;2023-12-04T10:32:11;1.70;99.90
59075;DHT22;44860;53.020;6.738;2023-12-04T10:34:37;1.70;99.90
59075;DHT22;44860;53.020;6.738;2023-12-04T10:37:04;1.70;99.90
59075;DHT22;44860;53.020;6.738;2023-12-04T10:39:31;1.70;99.90
59075;DHT22;44860;53.020;6.738;2023-12-04T10:42:03;1.70;99.90
59075;DHT22;44860;53.020;6.738;2023-12-04T10:44:30;1.70;99.90
59075;DHT22;44860;53.020;6.738;2023-12-04T10:46:57;1.70;99.90
59075;DHT22;44860;53.020;6.738;2023-12-04T10:49:27;1.70;99.90
59075;DHT22;44860;53.020;6.738;2023-12-04T10:51:57;1.70;99.90
59075;DHT22;44860;53.020;6.738;2023-12-04T10:54:25;1.80;99.90
59075;DHT22;44860;53.020;6.738;2023-12-04T10:56:52;1.70;99.90
59075;DHT22;44860;53.020;6.738;2023-12-04T10:59:23;1.70;99.90
59075;DHT22;44860;53.020;6.738;2023-12-04T11:01:51;1.80;99.90
59075;DHT22;44860;53.020;6.738;2023-12-04T11:04:21;1.80;99.90
59075;DHT22;44860;53.020;6.738;2023-12-04T11:06:52;1.80;99.90
59075;DHT22;44860;53.020;6.738;2023-12-04T11:09:20;1.80;99.90
59075;DHT22;44860;53.020;6.738;2023-12-04T11:11:50;1.80;99.90
59075;DHT22;44860;53.020;6.738;2023-12-04T11:14:19;1.90;99.90
59075;DHT22;44860;53.020;6.738;2023-12-04T11:16:51;1.90;99.90
59075;DHT22;44860;53.020;6.738;2023-12-04T11:22:10;1.90;99.90
59075;DHT22;44860;53.020;6.738;2023-12-04T11:24:37;1.90;99.90
59075;DHT22;44860;53.020;6.738;2023-12-04T11:27:03;1.90;99.90
59075;DHT22;44860;53.020;6.738;2023-12-04T11:29:30;2.00;99.90
59075;DHT22;44860;53.020;6.738;2023-12-04T11:31:56;2.00;99.90
59075;DHT22;44860;53.020;6.738;2023-12-04T11:34:24;2.00;99.90
59075;DHT22;44860;53.020;6.738;2023-12-04T11:36:51;2.00;99.90
59075;DHT22;44860;53.020;6.738;2023-12-04T11:39:18;2.00;99.90
59075;DHT22;44860;53.020;6.738;2023-12-04T11:41:45;2.00;99.90
59075;DHT22;44860;53.020;6.738;2023-12-04T11:44:14;2.00;99.90
59075;DHT22;44860;53.020;6.738;2023-12-04T11:47:02;2.00;99.90
59075;DHT22;44860;53.020;6.738;2023-12-04T11:49:29;2.00;99.90
59075;DHT22;44860;53.020;6.738;2023-12-04T11:51:59;2.10;99.90
59075;DHT22;44860;53.020;6.738;2023-12-04T11:54:26;2.10;99.90
59075;DHT22;44860;53.020;6.738;2023-12-04T11:59:28;2.10;99.90
59075;DHT22;44860;53.020;6.738;2023-12-04T12:01:55;2.20;99.90
59075;DHT22;44860;53.020;6.738;2023-12-04T12:04:22;2.10;99.90
59075;DHT22;44860;53.020;6.738;2023-12-04T12:06:48;2.20;99.90
59075;DHT22;44860;53.020;6.738;2023-12-04T12:09:15;2.20;99.90
59075;DHT22;44860;53.020;6.738;2023-12-04T12:11:41;2.20;99.90
59075;DHT22;44860;53.020;6.738;2023-12-04T12:14:06;2.20;99.90
59075;DHT22;44860;53.020;6.738;2023-12-04T12:16:32;2.20;99.90
59075;DHT22;44860;53.020;6.738;2023-12-04T12:18:58;2.20;99.90
59075;DHT22;44860;53.020;6.738;2023-12-04T12:21:24;2.20;99.90
59075;DHT22;44860;53.020;6.738;2023-12-04T12:23:50;2.30;99.90
59075;DHT22;44860;53.020;6.738;2023-12-04T12:26:16;2.30;99.90
59075;DHT22;44860;53.020;6.738;2023-12-04T12:28:41;2.30;99.90
59075;DHT22;44860;53.020;6.738;2023-12-04T12:31:07;2.30;99.90
59075;DHT22;44860;53.020;6.738;2023-12-04T12:33:33;2.40;99.90
59075;DHT22;44860;53.020;6.738;2023-12-04T12:36:00;2.40;99.90
59075;DHT22;44860;53.020;6.738;2023-12-04T12:38:26;2.40;99.90
59075;DHT22;44860;53.020;6.738;2023-12-04T12:40:51;2.40;99.90
59075;DHT22;44860;53.020;6.738;2023-12-04T12:43:20;2.40;99.90
59075;DHT22;44860;53.020;6.738;2023-12-04T12:45:48;2.40;99.90
59075;DHT22;44860;53.020;6.738;2023-12-04T12:48:15;2.40;99.90
59075;DHT22;44860;53.020;6.738;2023-12-04T12:50:46;2.50;99.90
59075;DHT22;44860;53.020;6.738;2023-12-04T12:53:13;2.50;99.90
59075;DHT22;44860;53.020;6.738;2023-12-04T12:55:43;2.50;99.90
59075;DHT22;44860;53.020;6.738;2023-12-04T12:58:09;2.50;99.90
59075;DHT22;44860;53.020;6.738;2023-12-04T13:00:36;2.40;99.90
59075;DHT22;44860;53.020;6.738;2023-12-04T13:03:01;2.40;99.90
59075;DHT22;44860;53.020;6.738;2023-12-04T13:05:27;2.40;99.90
59075;DHT22;44860;53.020;6.738;2023-12-04T13:07:53;2.40;99.90
59075;DHT22;44860;53.020;6.738;2023-12-04T13:10:21;2.40;99.90
59075;DHT22;44860;53.020;6.738;2023-12-04T13:12:46;2.40;99.90
59075;DHT22;44860;53.020;6.738;2023-12-04T13:15:17;2.40;99.90
59075;DHT22;44860;53.020;6.738;2023-12-04T13:17:43;2.40;99.90
59075;DHT22;44860;53.020;6.738;2023-12-04T13:20:09;2.40;99.90
59075;DHT22;44860;53.020;6.738;2023-12-04T13:22:38;2.40;99.90
59075;DHT22;44860;53.020;6.738;2023-12-04T13:25:05;2.40;99.90
59075;DHT22;44860;53.020;6.738;2023-12-04T13:27:33;2.40;99.90
59075;DHT22;44860;53.020;6.738;2023-12-04T13:29:59;2.40;99.90
59075;DHT22;44860;53.020;6.738;2023-12-04T13:32:24;2.40;99.90
59075;DHT22;44860;53.020;6.738;2023-12-04T13:34:50;2.40;99.90
59075;DHT22;44860;53.020;6.738;2023-12-04T13:37:16;2.40;99.90
59075;DHT22;44860;53.020;6.738;2023-12-04T13:39:41;2.40;99.90
59075;DHT22;44860;53.020;6.738;2023-12-04T13:42:14;2.40;99.90
59075;DHT22;44860;53.020;6.738;2023-12-04T13:45:00;2.40;99.90
59075;DHT22;44860;53.020;6.738;2023-12-04T13:47:26;2.40;99.90
59075;DHT22;44860;53.020;6.738;2023-12-04T13:49:51;2.40;99.90
59075;DHT22;44860;53.020;6.738;2023-12-04T13:52:17;2.40;99.90
59075;DHT22;44860;53.020;6.738;2023-12-04T13:54:47;2.40;99.90
59075;DHT22;44860;53.020;6.738;2023-12-04T13:57:15;2.40;99.90
59075;DHT22;44860;53.020;6.738;2023-12-04T13:59:47;2.40;99.90
59075;DHT22;44860;53.020;6.738;2023-12-04T14:02:13;2.40;99.90
59075;DHT22;44860;53.020;6.738;2023-12-04T14:04:40;2.40;99.90
59075;DHT22;44860;53.020;6.738;2023-12-04T14:07:06;2.40;99.90
59075;DHT22;44860;53.020;6.738;2023-12-04T14:09:34;2.40;99.90
59075;DHT22;44860;53.020;6.738;2023-12-04T14:12:00;2.40;99.90
59075;DHT22;44860;53.020;6.738;2023-12-04T14:14:26;2.30;99.90
59075;DHT22;44860;53.020;6.738;2023-12-04T14:16:52;2.30;99.90
59075;DHT22;44860;53.020;6.738;2023-12-04T14:19:18;2.30;99.90
59075;DHT22;44860;53.020;6.738;2023-12-04T14:21:47;2.30;99.90
59075;DHT22;44860;53.020;6.738;2023-12-04T14:24:15;2.20;99.90
59075;DHT22;44860;53.020;6.738;2023-12-04T14:26:41;2.20;99.90
59075;DHT22;44860;53.020;6.738;2023-12-04T14:29:07;2.20;99.90
59075;DHT22;44860;53.020;6.738;2023-12-04T14:31:36;2.20;99.90
59075;DHT22;44860;53.020;6.738;2023-12-04T14:34:02;2.20;99.90
59075;DHT22;44860;53.020;6.738;2023-12-04T14:36:29;2.20;99.90
59075;DHT22;44860;53.020;6.738;2023-12-04T14:39:00;2.20;99.90
59075;DHT22;44860;53.020;6.738;2023-12-04T14:41:26;2.10;99.90
59075;DHT22;44860;53.020;6.738;2023-12-04T14:43:51;2.10;99.90
59075;DHT22;44860;53.020;6.738;2023-12-04T14:46:17;2.10;99.90
59075;DHT22;44860;53.020;6.738;2023-12-04T14:48:43;2.10;99.90
59075;DHT22;44860;53.020;6.738;2023-12-04T14:51:09;2.00;99.90
59075;DHT22;44860;53.020;6.738;2023-12-04T14:53:39;2.00;99.90
59075;DHT22;44860;53.020;6.738;2023-12-04T14:56:11;2.00;99.90
59075;DHT22;44860;53.020;6.738;2023-12-04T14:58:42;2.00;99.90
59075;DHT22;44860;53.020;6.738;2023-12-04T15:01:11;2.00;99.90
59075;DHT22;44860;53.020;6.738;2023-12-04T15:03:56;2.00;99.90
59075;DHT22;44860;53.020;6.738;2023-12-04T15:06:21;1.90;99.90
59075;DHT22;44860;53.020;6.738;2023-12-04T15:09:00;1.90;99.90
59075;DHT22;44860;53.020;6.738;2023-12-04T15:11:45;1.90;99.90
59075;DHT22;44860;53.020;6.738;2023-12-04T15:14:28;1.90;99.90
59075;DHT22;44860;53.020;6.738;2023-12-04T15:17:06;1.90;99.90
59075;DHT22;44860;53.020;6.738;2023-12-04T15:19:44;1.90;99.90
59075;DHT22;44860;53.020;6.738;2023-12-04T15:22:25;1.90;99.90
59075;DHT22;44860;53.020;6.738;2023-12-04T15:24:50;1.90;99.90
59075;DHT22;44860;53.020;6.738;2023-12-04T15:27:17;1.90;99.90
59075;DHT22;44860;53.020;6.738;2023-12-04T15:29:43;1.90;99.90
59075;DHT22;44860;53.020;6.738;2023-12-04T15:32:09;1.80;99.90
59075;DHT22;44860;53.020;6.738;2023-12-04T15:34:34;1.80;99.90
59075;DHT22;44860;53.020;6.738;2023-12-04T15:37:06;1.80;99.90
59075;DHT22;44860;53.020;6.738;2023-12-04T15:39:32;1.80;99.90
59075;DHT22;44860;53.020;6.738;2023-12-04T15:41:57;1.80;99.90
59075;DHT22;44860;53.020;6.738;2023-12-04T15:44:23;1.80;99.90
59075;DHT22;44860;53.020;6.738;2023-12-04T15:46:49;1.80;99.90